Flight Track Log - Related Links

Times and Time Zones

All times are in EDT time to prevent confusion due to time zone crossing. See the GJS6221 flight status page for this flight to view local times or setup timezone preferences in your user account.

Time Position Orientation Groundspeed Altitude Reporting Facility
EDT Latitude Longitude Course Direction KTS MPH feet Rate Location/Type
Thu 06:11:40 PM 40.8000 -73.7500 218° Southwest 225 259 4,500  Level New York TRACON
Thu 06:12:40 PM 40.8500 -73.7667 346° North 239 275 7,200 1,667 Climbing New York TRACON
Thu 06:13:46 PM 40.8000 -73.8167 217° Southwest 261 300 8,000 619 Climbing New York TRACON
Thu 06:14:46 PM 40.7333 -73.7833 159° South 293 337 8,500 1,100 Climbing New York TRACON
Thu 06:15:46 PM 40.6667 -73.7333 150° Southeast 346 398 10,200 1,579 Climbing New York TRACON
Thu 06:16:40 PM 40.5833 -73.6667 149° Southeast 340 391 11,500 947 Climbing New York TRACON
Thu 06:17:00 PM 40.3164 -74.3194 218° Southwest  Level Estimated
Thu 06:17:40 PM 40.5000 -73.6000 149° Southeast 370 426 12,000  Level New York TRACON
Thu 06:19:12 PM 40.3572 -73.4947 151° Southeast 401 461 12,000 474 Level New York Center
Thu 06:20:12 PM 40.2714 -73.4261 149° Southeast 396 456 13,200 1,750 Climbing New York Center
Thu 06:21:12 PM 40.1714 -73.3353 145° Southeast 402 463 15,500 2,043 Climbing New York Center
Thu 06:23:20 PM 39.9825 -73.3686 188° South 353 406 19,600 1,873 Climbing Washington Center
Thu 06:24:21 PM 39.8947 -73.4686 221° Southwest 347 399 21,400 1,623 Climbing Washington Center
Thu 06:25:22 PM 39.8150 -73.5575 221° Southwest 368 423 22,900 1,513 Climbing Washington Center
Thu 06:26:20 PM 39.7353 -73.6514 222° Southwest 380 437 24,400 1,361 Climbing Washington Center
Thu 06:27:21 PM 39.6514 -73.7453 221° Southwest 392 451 25,600 1,082 Climbing Washington Center
Thu 06:28:22 PM 39.5672 -73.8417 221° Southwest 397 457 26,600 984 Climbing Washington Center
Thu 06:29:23 PM 39.4811 -73.9406 222° Southwest 409 471 27,600 1,017 Climbing Washington Center
Thu 06:30:20 PM 39.3950 -74.0367 221° Southwest 416 479 28,600 1,017 Climbing Washington Center
Thu 06:31:21 PM 39.3067 -74.1325 220° Southwest 421 484 29,600 689 Climbing Washington Center
Thu 06:32:22 PM 39.2139 -74.2333 220° Southwest 431 496 30,000 202 Climbing Washington Center
Thu 06:33:20 PM 39.1275 -74.3367 223° Southwest 431 496 30,000  Level Washington Center
Thu 06:34:21 PM 39.0411 -74.4344 221° Southwest 426 490 30,000  Level Washington Center
Thu 06:35:21 PM 38.9544 -74.5344 222° Southwest 426 490 30,000  Level Washington Center
Thu 06:36:21 PM 38.8656 -74.6344 221° Southwest 421 484 30,000  Level Washington Center
Thu 06:37:22 PM 38.7789 -74.7394 223° Southwest 426 490 30,000  Level Washington Center
Thu 06:38:23 PM 38.6878 -74.8389 220° Southwest 436 502 30,000  Level Washington Center
Thu 06:39:21 PM 38.5986 -74.9408 222° Southwest 436 502 30,000  Level Washington Center
Thu 06:40:21 PM 38.5075 -75.0372 220° Southwest 436 502 30,000  Level Washington Center
Thu 06:41:22 PM 38.4183 -75.1358 221° Southwest 436 502 30,000  Level Washington Center
Thu 06:42:20 PM 38.3311 -75.2344 222° Southwest 431 496 30,000  Level Washington Center
Thu 06:43:21 PM 38.2519 -75.3272 223° Southwest 431 496 30,000  Level Washington Center
Thu 06:44:21 PM 38.1606 -75.4228 219° Southwest 431 496 30,000  Level Washington Center
Thu 06:45:22 PM 38.0708 -75.5153 219° Southwest 431 496 30,000  Level Washington Center
Thu 06:46:24 PM 37.9833 -75.6128 221° Southwest 426 490 30,000  Level Washington Center
Thu 06:47:22 PM 37.8936 -75.7128 221° Southwest 426 490 30,000  Level Washington Center
Thu 06:48:20 PM 37.8039 -75.8100 221° Southwest 426 490 30,000  Level Washington Center
Thu 06:49:22 PM 37.7161 -75.9069 221° Southwest 426 490 30,000  Level Washington Center
Thu 06:50:20 PM 37.6261 -76.0033 220° Southwest 426 490 30,000  Level Washington Center
Thu 06:51:21 PM 37.5319 -76.1000 219° Southwest 433 498 30,000  Level Washington Center
Thu 06:52:22 PM 37.4375 -76.1908 217° Southwest 433 498 30,000  Level Washington Center
Thu 06:53:20 PM 37.3472 -76.2867 220° Southwest 433 498 30,000  Level Washington Center
Thu 06:54:20 PM 37.2569 -76.3825 220° Southwest 426 490 30,000  Level Washington Center
Thu 06:55:21 PM 37.1667 -76.4781 220° Southwest 426 490 30,000 -295 Level Washington Center
Thu 06:56:22 PM 37.0742 -76.5733 219° Southwest 426 490 29,400  Descending Washington Center
Thu 06:57:20 PM 36.9836 -76.6683 220° Southwest 426 490 30,000 303 Climbing Washington Center
Thu 06:58:21 PM 36.8908 -76.7658 220° Southwest 431 496 30,000  Level Washington Center
Thu 06:59:22 PM 36.7981 -76.8628 220° Southwest 431 496 30,000  Level Washington Center
Thu 07:00:20 PM 36.7053 -76.9597 220° Southwest 431 496 30,000  Level Washington Center
Thu 07:01:21 PM 36.6167 -77.0514 220° Southwest 431 496 30,000  Level Washington Center
Thu 07:02:22 PM 36.5236 -77.1453 219° Southwest 431 496 30,000  Level Washington Center
Thu 07:03:22 PM 36.4347 -77.2392 220° Southwest 431 496 30,000  Level Washington Center
Thu 07:04:20 PM 36.3439 -77.3300 219° Southwest 431 496 30,000  Level Washington Center
Thu 07:05:21 PM 36.2547 -77.4233 220° Southwest 431 496 30,000  Level Washington Center
Thu 07:06:22 PM 36.1678 -77.5139 220° Southwest 425 489 30,000  Level Washington Center
Thu 07:07:20 PM 36.0767 -77.6042 219° Southwest 425 489 30,000  Level Washington Center
Thu 07:08:21 PM 35.9875 -77.6944 219° Southwest 425 489 30,000  Level Washington Center
Thu 07:09:21 PM 35.8939 -77.7842 218° Southwest 425 489 30,000  Level Washington Center
Thu 07:10:22 PM 35.8025 -77.8714 218° Southwest 425 489 30,000  Level Washington Center
Thu 07:11:22 PM 35.7092 -77.9608 218° Southwest 425 489 30,000  Level Washington Center
Thu 07:12:20 PM 35.6069 -78.0575 218° Southwest 430 495 30,000  Level Washington Center
Thu 07:13:20 PM 35.5133 -78.1464 218° Southwest 430 495 30,000  Level Washington Center
Thu 07:14:20 PM 35.4194 -78.2350 218° Southwest 430 495 30,000  Level Washington Center
Thu 07:15:21 PM 35.3236 -78.3236 217° Southwest 430 495 30,000  Level Washington Center
Thu 07:16:21 PM 35.2297 -78.4119 218° Southwest 430 495 30,000  Level Washington Center
Thu 07:17:22 PM 35.1381 -78.5000 218° Southwest 430 495 30,000  Level Washington Center
Thu 07:18:20 PM 35.0439 -78.5881 217° Southwest 430 495 30,000  Level Washington Center
Thu 07:19:21 PM 34.9500 -78.6758 217° Southwest 430 495 30,000  Level Washington Center
Thu 07:21:38 PM 34.7422 -78.8681 217° Southwest 429 494 30,000  Level Jacksonville Center
Thu 07:22:38 PM 34.6511 -78.9556 218° Southwest 429 494 30,000  Level Jacksonville Center
Thu 07:23:38 PM 34.5558 -79.0431 217° Southwest 429 494 30,000  Level Jacksonville Center
Thu 07:24:38 PM 34.4544 -79.1408 219° Southwest 429 494 30,000  Level Jacksonville Center
Thu 07:25:38 PM 34.3589 -79.2278 217° Southwest 429 494 30,000  Level Jacksonville Center
Thu 07:26:38 PM 34.2675 -79.3122 217° Southwest 429 494 30,000  Level Jacksonville Center
Thu 07:27:38 PM 34.1739 -79.3964 217° Southwest 429 494 30,000  Level Jacksonville Center
Thu 07:28:38 PM 34.0925 -79.4672 216° Southwest 413 475 30,000 -150 Level Jacksonville Center
Thu 07:29:38 PM 33.9986 -79.5511 217° Southwest 413 475 29,700 -750 Descending Jacksonville Center
Thu 07:30:38 PM 33.9111 -79.6319 217° Southwest 413 475 28,500 -1,200 Descending Jacksonville Center
Thu 07:31:38 PM 33.8256 -79.7103 217° Southwest 407 468 27,300 -1,200 Descending Jacksonville Center
Thu 07:32:38 PM 33.7356 -79.7883 216° Southwest 402 463 26,100 -1,200 Descending Jacksonville Center
Thu 07:33:38 PM 33.6458 -79.8689 217° Southwest 407 468 24,900 -1,250 Descending Jacksonville Center
Thu 07:34:38 PM 33.5581 -79.9517 218° Southwest 407 468 23,600 -1,200 Descending Jacksonville Center
Thu 07:35:38 PM 33.4719 -80.0267 216° Southwest 402 463 22,500 -1,150 Descending Jacksonville Center
Thu 07:36:38 PM 33.3881 -80.1014 217° Southwest 397 457 21,300 -1,200 Descending Jacksonville Center
Thu 07:37:38 PM 33.3064 -80.1761 217° Southwest 386 444 20,100 -950 Descending Jacksonville Center
Thu 07:38:38 PM 33.2244 -80.2506 217° Southwest 379 436 19,400 -950 Descending Jacksonville Center
Thu 07:39:38 PM 33.1342 -80.3300 216° Southwest 372 428 18,200 -1,050 Descending Jacksonville Center
Thu 07:40:38 PM 33.0481 -80.4044 216° Southwest 369 425 17,300 -1,000 Descending Jacksonville Center
Thu 07:41:38 PM 32.9761 -80.4683 217° Southwest 375 432 16,200 -1,150 Descending Jacksonville Center
Thu 07:42:38 PM 32.8981 -80.5347 216° Southwest 364 419 15,000 -1,200 Descending Jacksonville Center
Thu 07:43:38 PM 32.8222 -80.6011 216° Southwest 352 405 13,800 -1,300 Descending Jacksonville Center
Thu 07:44:38 PM 32.7419 -80.6697 216° Southwest 339 390 12,400 -1,250 Descending Jacksonville Center
Thu 07:45:38 PM 32.6886 -80.7181 217° Southwest 327 376 11,300 -1,550 Descending Jacksonville Center
Thu 07:46:38 PM 32.6125 -80.7864 217° Southwest 292 336 9,300 -1,850 Descending Jacksonville Center
Thu 07:47:38 PM 32.5633 -80.8442 225° Southwest 292 336 7,600 -1,700 Descending Jacksonville Center
Thu 07:48:38 PM 32.5144 -80.9267 235° Southwest 286 329 5,900 -1,650 Descending Jacksonville Center
Thu 07:49:38 PM 32.4739 -80.9939 234° Southwest 270 311 4,300 -900 Descending Jacksonville Center
Thu 07:50:38 PM 32.4289 -81.0639 233° Southwest 270 311 4,100 -100 Descending Jacksonville Center
Thu 07:51:38 PM 32.3881 -81.1261 232° Southwest 269 310 4,100  Level Jacksonville Center
Thu 07:52:38 PM 32.3453 -81.1983 235° Southwest 269 310 4,100 -600 Level Jacksonville Center
Thu 07:53:38 PM 32.2853 -81.2558 219° Southwest 256 295 2,900 -1,000 Descending Jacksonville Center
Thu 07:54:38 PM 32.2339 -81.2986 215° Southwest 243 280 2,100 -400 Descending Jacksonville Center
Thu 07:55:38 PM 32.1989 -81.3483 230° Southwest 215 247 2,100  Level Jacksonville Center
Thu 07:56:38 PM 32.1614 -81.3611 196° South 174 200 2,100 -100 Level Jacksonville Center
Thu 07:57:38 PM 32.1317 -81.3250 134° Southeast 127 146 1,900 -650 Descending Jacksonville Center
Thu 07:58:38 PM 32.1292 -81.2783 94° East 122 140 800 -800 Descending Jacksonville Center
Thu 07:59:38 PM 32.1264 -81.2392 95° East 127 146 300 -250 Descending Jacksonville Center
Thu 08:00:38 PM 32.1261 -81.2000 90° East 127 146 300  Level Jacksonville Center
Thu 08:02:00 PM 32.1167 -81.2000 North  Level FlightAware Approximate

Login

Don't have an account? Register now (free) for customized features, flight alerts, and more!